Time;durP1;ratioP1;P1;durP2;ratioP2;P2;SDS_P1;SDS_P2;PMS_P1;PMS_P2;Temp;Humidity;BMP_temperature;BMP_pressure;BME280_temperature;BME280_humidity;BME280_pressure;Samples;Min_cycle;Max_cycle;Signal;HPM_P1;HPM_P2
2021/12/16 00:08:31;;;;;;;10.07;5.93;;;3.50;89.20;;;;;;5074400;28;20059;-78
2021/12/16 00:19:41;;;;;;;10.45;5.50;;;3.50;89.40;;;;;;5074390;28;20062;-78
2021/12/16 00:29:03;;;;;;;9.18;4.82;;;3.50;89.50;;;;;;5068471;28;20086;-78
2021/12/16 00:33:17;;;;;;;11.60;6.97;;;3.40;88.90;;;;;;5073576;28;20063;-76
2021/12/16 00:35:47;;;;;;;9.73;6.72;;;3.40;89.10;;;;;;5055918;28;20024;-77
2021/12/16 00:38:13;;;;;;;12.63;6.50;;;3.40;89.20;;;;;;5055322;28;20057;-77
2021/12/16 00:40:40;;;;;;;12.10;6.07;;;3.40;89.20;;;;;;5055844;28;20048;-77
2021/12/16 00:43:22;;;;;;;10.18;6.15;;;3.40;89.30;;;;;;5055432;28;20036;-77
2021/12/16 00:55:58;;;;;;;11.57;6.72;;;3.40;89.50;;;;;;5073282;28;20431;-77
2021/12/16 00:58:44;;;;;;;13.07;6.75;;;3.50;89.60;;;;;;5073334;28;20511;-77
2021/12/16 01:01:37;;;;;;;;;;;3.60;89.20;;;;;;5073538;28;20020;-78
2021/12/16 01:04:56;;;;;;;11.80;7.30;;;3.60;88.60;;;;;;5055047;28;20521;-77
2021/12/16 01:34:43;;;;;;;15.38;7.45;;;3.50;89.30;;;;;;5072711;28;20069;-77
2021/12/16 01:42:44;;;;;;;10.32;6.63;;;3.50;89.20;;;;;;5073154;28;20127;-77
2021/12/16 01:50:38;;;;;;;15.10;9.57;;;3.50;89.60;;;;;;5072860;28;20028;-77
2021/12/16 01:55:54;;;;;;;17.00;9.68;;;3.50;90.20;;;;;;5072803;28;20461;-76
2021/12/16 01:58:23;;;;;;;22.27;10.95;;;3.50;90.20;;;;;;5054680;28;20063;-77
2021/12/16 02:01:14;;;;;;;21.63;11.48;;;3.50;90.40;;;;;;5074077;28;20016;-77
2021/12/16 02:03:48;;;;;;;21.13;10.73;;;3.60;90.40;;;;;;5058547;28;20028;-77
2021/12/16 02:08:46;;;;;;;19.73;12.13;;;3.80;90.10;;;;;;5076720;28;20403;-77
2021/12/16 02:27:24;;;;;;;18.73;10.63;;;3.80;89.80;;;;;;5076617;28;20021;-76
2021/12/16 02:33:16;;;;;;;16.40;8.90;;;4.00;89.10;;;;;;5075727;28;20045;-77
2021/12/16 02:35:48;;;;;;;15.63;8.88;;;4.10;89.00;;;;;;5076085;28;20408;-76
2021/12/16 02:38:18;;;;;;;17.48;9.77;;;4.00;88.90;;;;;;5058188;28;20476;-76
2021/12/16 02:40:52;;;;;;;14.75;9.25;;;4.00;88.80;;;;;;5075941;28;20119;-77
2021/12/16 02:48:37;;;;;;;20.70;11.95;;;4.00;88.70;;;;;;5075883;28;20078;-77
2021/12/16 02:51:05;;;;;;;20.88;12.18;;;4.10;89.00;;;;;;5057787;28;20020;-77
2021/12/16 02:53:33;;;;;;;20.95;12.25;;;4.10;88.90;;;;;;5057881;28;20173;-77
2021/12/16 02:55:59;;;;;;;22.63;12.18;;;4.10;88.80;;;;;;5075633;28;20016;-76
2021/12/16 02:58:25;;;;;;;21.75;12.07;;;4.20;88.70;;;;;;5057821;28;20503;-76
2021/12/16 03:01:13;;;;;;;19.23;12.13;;;4.10;88.60;;;;;;5057505;28;20361;-77
2021/12/16 03:03:40;;;;;;;28.15;15.35;;;4.20;88.50;;;;;;5057710;28;20028;-77
2021/12/16 03:06:09;;;;;;;27.08;15.13;;;4.10;88.50;;;;;;5057487;28;20021;-77
2021/12/16 03:08:35;;;;;;;31.42;18.88;;;4.20;88.50;;;;;;5057378;28;20036;-78
2021/12/16 03:11:19;;;;;;;29.98;15.98;;;4.20;88.60;;;;;;5057259;28;20025;-77
2021/12/16 03:14:16;;;;;;;25.30;14.25;;;4.20;88.40;;;;;;5056694;28;20030;-77
2021/12/16 03:17:10;;;;;;;22.52;13.30;;;4.20;88.40;;;;;;5075116;28;20027;-77
2021/12/16 03:20:04;;;;;;;22.13;12.38;;;4.20;88.30;;;;;;5057032;28;20071;-77
2021/12/16 03:28:19;;;;;;;24.90;12.90;;;4.10;88.40;;;;;;5074979;28;20036;-78
2021/12/16 03:30:58;;;;;;;22.45;12.50;;;4.10;88.60;;;;;;5074460;28;20027;-78
2021/12/16 03:36:14;;;;;;;24.98;12.23;;;4.10;88.70;;;;;;5074771;28;20358;-78
2021/12/16 03:38:43;;;;;;;18.42;10.98;;;4.00;88.60;;;;;;5074794;28;20024;-78
2021/12/16 03:41:09;;;;;;;21.33;12.05;;;4.00;88.70;;;;;;5056854;28;20082;-78
2021/12/16 03:43:37;;;;;;;20.85;12.10;;;4.10;88.80;;;;;;5056817;28;20036;-77
2021/12/16 03:48:55;;;;;;;20.98;11.45;;;4.10;88.80;;;;;;5074717;28;20040;-78
2021/12/16 03:51:32;;;;;;;22.50;11.80;;;4.00;88.70;;;;;;5056602;28;20021;-78
2021/12/16 03:54:09;;;;;;;20.73;11.95;;;4.00;88.80;;;;;;5056581;28;20020;-77
2021/12/16 03:56:35;;;;;;;24.52;12.65;;;4.00;89.10;;;;;;5056675;28;20052;-78
2021/12/16 03:59:01;;;;;;;24.70;13.30;;;4.00;89.10;;;;;;5074336;28;20103;-78
2021/12/16 04:01:29;;;;;;;23.13;12.23;;;4.00;89.00;;;;;;5073983;28;20103;-78
2021/12/16 04:03:56;;;;;;;21.45;11.85;;;4.00;89.00;;;;;;5056375;28;20073;-78
2021/12/16 04:06:23;;;;;;;22.45;11.93;;;3.90;89.20;;;;;;5055880;28;20020;-78
2021/12/16 04:08:52;;;;;;;18.52;11.48;;;3.90;89.20;;;;;;5056404;28;20037;-78
2021/12/16 04:11:23;;;;;;;19.05;11.32;;;3.90;89.40;;;;;;5073642;28;20021;-79
2021/12/16 04:13:59;;;;;;;18.27;10.45;;;3.80;90.10;;;;;;5056151;28;20024;-79
2021/12/16 04:16:33;;;;;;;16.38;9.20;;;3.80;89.50;;;;;;5056211;28;20111;-79
2021/12/16 04:19:01;;;;;;;15.80;9.15;;;3.80;89.50;;;;;;5056026;28;20060;-77
2021/12/16 04:21:28;;;;;;;17.50;10.40;;;3.80;89.60;;;;;;5056180;28;20027;-78
2021/12/16 04:23:57;;;;;;;17.08;10.18;;;3.90;89.70;;;;;;5054882;28;20025;-78
2021/12/16 04:26:26;;;;;;;18.15;10.27;;;3.90;89.70;;;;;;5055988;28;20027;-79
2021/12/16 04:28:52;;;;;;;16.02;9.35;;;3.90;89.40;;;;;;5055766;28;20032;-79
2021/12/16 04:31:18;;;;;;;18.83;9.70;;;3.90;89.60;;;;;;5055923;28;20107;-78
2021/12/16 04:33:45;;;;;;;17.45;9.90;;;3.90;89.50;;;;;;5055753;28;20139;-78
2021/12/16 04:36:13;;;;;;;14.68;8.95;;;3.90;89.50;;;;;;5055924;28;20025;-77
2021/12/16 04:38:41;;;;;;;17.60;9.27;;;4.00;89.60;;;;;;5055870;28;20021;-78
2021/12/16 04:41:12;;;;;;;18.00;9.88;;;3.90;89.60;;;;;;5073667;28;20043;-77
2021/12/16 04:43:46;;;;;;;18.05;9.15;;;4.00;89.60;;;;;;5055609;28;20024;-78
2021/12/16 04:46:15;;;;;;;18.67;9.25;;;4.00;89.70;;;;;;5040354;28;20033;-75
2021/12/16 04:48:43;;;;;;;13.40;8.35;;;3.90;89.70;;;;;;5073124;28;20040;-78
2021/12/16 04:51:12;;;;;;;17.63;9.50;;;4.00;89.70;;;;;;5055347;28;20017;-77
2021/12/16 04:53:41;;;;;;;15.77;7.55;;;4.00;89.70;;;;;;5055335;28;20032;-76
2021/12/16 04:56:08;;;;;;;16.42;9.15;;;4.00;89.60;;;;;;5055397;28;20074;-76
2021/12/16 04:58:35;;;;;;;14.68;8.18;;;3.90;90.50;;;;;;5073272;28;20091;-77
2021/12/16 05:01:01;;;;;;;16.17;8.32;;;4.00;89.90;;;;;;5055192;28;20388;-77
2021/12/16 05:03:28;;;;;;;13.93;7.32;;;4.00;89.70;;;;;;5073273;28;20028;-76
2021/12/16 05:05:56;;;;;;;12.90;7.15;;;4.00;89.70;;;;;;5055553;28;20040;-76
2021/12/16 05:08:22;;;;;;;15.98;8.40;;;4.00;89.60;;;;;;5054925;28;20043;-75
2021/12/16 05:10:50;;;;;;;13.77;7.68;;;4.00;89.50;;;;;;5054934;28;20024;-74
2021/12/16 05:13:19;;;;;;;13.75;7.32;;;3.90;89.50;;;;;;5053920;28;20031;-75
2021/12/16 05:15:45;;;;;;;12.77;7.03;;;3.90;89.60;;;;;;5054642;28;20515;-75
2021/12/16 05:18:14;;;;;;;12.57;6.03;;;3.90;89.70;;;;;;5054463;28;20024;-77
2021/12/16 05:20:43;;;;;;;13.48;6.47;;;3.90;89.70;;;;;;5054654;28;20056;-75
2021/12/16 05:26:14;;;;;;;10.45;6.50;;;4.00;89.90;;;;;;5072635;28;20495;-75
2021/12/16 05:28:52;;;;;;;11.38;6.95;;;3.90;89.80;;;;;;5054890;28;20082;-76
2021/12/16 05:31:20;;;;;;;11.65;7.05;;;3.90;89.90;;;;;;5055031;28;20025;-76
2021/12/16 05:33:47;;;;;;;10.50;6.15;;;3.90;89.70;;;;;;5051285;28;20497;-75
2021/12/16 05:36:13;;;;;;;13.82;8.05;;;4.00;89.60;;;;;;5051096;28;20032;-76
2021/12/16 05:38:39;;;;;;;19.48;9.73;;;4.00;89.60;;;;;;5051441;28;20391;-76
2021/12/16 05:41:06;;;;;;;18.17;10.90;;;4.00;89.50;;;;;;5051132;28;20040;-76
2021/12/16 05:43:33;;;;;;;18.83;11.23;;;4.00;89.60;;;;;;5034615;28;20075;-76
2021/12/16 05:46:00;;;;;;;22.23;11.57;;;3.90;89.70;;;;;;5051459;28;20032;-76
2021/12/16 05:48:29;;;;;;;18.33;10.52;;;4.00;89.80;;;;;;5051331;28;20029;-76
2021/12/16 05:50:59;;;;;;;19.35;11.05;;;4.00;89.80;;;;;;5052588;28;20032;-77
2021/12/16 05:53:25;;;;;;;19.90;11.32;;;4.00;89.70;;;;;;5051647;28;20120;-76
2021/12/16 05:55:51;;;;;;;23.05;11.35;;;4.10;89.70;;;;;;5051334;28;20052;-75
2021/12/16 05:58:19;;;;;;;20.63;11.52;;;4.10;89.60;;;;;;5051430;28;20123;-79
2021/12/16 06:00:51;;;;;;;15.80;10.13;;;4.10;89.40;;;;;;5052321;28;20013;-76
2021/12/16 06:03:17;;;;;;;16.30;9.68;;;4.10;89.50;;;;;;5051203;28;20435;-79
2021/12/16 06:05:44;;;;;;;18.08;9.68;;;4.10;89.50;;;;;;5051254;28;20021;-78
2021/12/16 06:08:10;;;;;;;24.77;12.32;;;4.10;89.20;;;;;;5051000;28;20037;-79
2021/12/16 06:13:25;;;;;;;22.25;11.85;;;4.00;89.50;;;;;;5052409;28;20139;-78
2021/12/16 06:27:02;;;;;;;18.33;11.05;;;4.20;89.10;;;;;;5052480;28;20064;-77
2021/12/16 06:29:28;;;;;;;19.38;11.32;;;4.20;89.00;;;;;;5035704;28;20052;-78
2021/12/16 06:31:55;;;;;;;18.83;11.25;;;4.10;89.00;;;;;;5053053;28;20021;-77
2021/12/16 06:34:21;;;;;;;18.75;10.85;;;4.10;89.10;;;;;;5071950;28;20033;-76
2021/12/16 06:36:46;;;;;;;21.63;11.43;;;4.00;89.20;;;;;;5053912;28;20035;-76
2021/12/16 06:39:13;;;;;;;18.92;11.20;;;4.10;89.60;;;;;;5054091;28;20025;-76
2021/12/16 06:41:38;;;;;;;18.95;11.73;;;4.10;89.50;;;;;;5054169;28;20025;-76
2021/12/16 06:44:15;;;;;;;19.20;10.98;;;4.10;89.50;;;;;;5054040;28;20082;-78
2021/12/16 06:46:43;;;;;;;20.75;11.02;;;4.10;89.40;;;;;;5071992;28;20027;-78
2021/12/16 06:49:11;;;;;;;17.48;10.80;;;4.20;89.30;;;;;;5057231;28;20545;-75
2021/12/16 06:51:45;;;;;;;17.58;9.82;;;4.20;89.20;;;;;;5057661;28;20107;-75
2021/12/16 06:54:20;;;;;;;18.55;10.23;;;4.20;89.10;;;;;;5057549;28;20032;-75
2021/12/16 06:59:38;;;;;;;17.80;9.95;;;4.20;89.60;;;;;;5075721;28;20151;-75
2021/12/16 07:02:13;;;;;;;14.05;7.53;;;4.20;88.70;;;;;;5057458;28;20093;-78
2021/12/16 07:04:43;;;;;;;14.45;8.30;;;4.20;88.50;;;;;;5057274;28;20021;-77
2021/12/16 07:07:11;;;;;;;14.05;8.02;;;4.20;88.50;;;;;;5056997;28;20338;-76
2021/12/16 07:09:37;;;;;;;17.67;9.02;;;4.10;88.50;;;;;;5057025;28;20047;-79
2021/12/16 07:12:05;;;;;;;17.10;9.90;;;4.10;88.80;;;;;;5057278;28;20025;-77
2021/12/16 07:14:38;;;;;;;14.38;8.32;;;4.10;89.40;;;;;;5075070;28;20107;-77
2021/12/16 07:17:07;;;;;;;12.75;7.88;;;4.10;89.50;;;;;;5056801;28;20025;-77
2021/12/16 07:19:33;;;;;;;15.73;7.95;;;4.10;89.40;;;;;;5056758;28;20491;-77
2021/12/16 07:21:59;;;;;;;14.77;8.15;;;4.10;89.40;;;;;;5056782;28;20445;-76
2021/12/16 07:24:25;;;;;;;12.80;6.90;;;4.10;89.40;;;;;;5056875;28;20113;-77
2021/12/16 07:26:51;;;;;;;11.38;6.80;;;4.10;89.40;;;;;;5040105;28;20060;-77
2021/12/16 07:29:17;;;;;;;10.95;6.90;;;4.20;89.20;;;;;;5057075;28;20128;-77
2021/12/16 07:31:43;;;;;;;10.52;6.10;;;4.10;89.30;;;;;;5056773;28;20107;-75
2021/12/16 07:34:11;;;;;;;12.68;5.90;;;4.00;89.20;;;;;;5074757;28;20068;-77
2021/12/16 07:36:40;;;;;;;11.02;5.90;;;4.10;89.20;;;;;;5075072;28;20021;-74
2021/12/16 07:39:08;;;;;;;10.05;5.68;;;4.00;88.70;;;;;;5056742;28;20063;-77
2021/12/16 07:41:35;;;;;;;13.55;5.63;;;4.00;88.90;;;;;;5056516;28;20119;-75
2021/12/16 07:44:09;;;;;;;12.30;5.80;;;4.00;89.00;;;;;;5056853;28;20083;-75
2021/12/16 07:46:55;;;;;;;9.50;4.60;;;4.00;89.20;;;;;;5056599;28;20040;-77
2021/12/16 07:49:22;;;;;;;;;;;4.00;89.00;;;;;;5057062;28;20051;-77
2021/12/16 07:51:49;;;;;;;8.52;4.07;;;4.00;88.90;;;;;;5074341;28;19947;-77
2021/12/16 07:54:16;;;;;;;7.03;4.22;;;4.00;88.80;;;;;;5074396;28;20020;-77
2021/12/16 07:56:42;;;;;;;4.60;3.13;;;4.00;88.80;;;;;;5074437;28;20435;-78
2021/12/16 07:59:09;;;;;;;6.82;3.05;;;4.00;88.70;;;;;;5056531;28;20067;-78
2021/12/16 08:01:36;;;;;;;5.45;3.13;;;4.00;88.40;;;;;;5056126;28;20143;-77
2021/12/16 08:04:02;;;;;;;5.97;3.13;;;4.00;88.30;;;;;;5074222;28;20055;-75
2021/12/16 08:06:29;;;;;;;8.25;4.53;;;4.00;88.40;;;;;;5073742;28;20024;-75
2021/12/16 08:08:59;;;;;;;7.93;4.35;;;4.00;88.40;;;;;;5055885;28;20056;-76
2021/12/16 08:11:28;;;;;;;8.88;3.97;;;4.00;88.50;;;;;;5055865;28;20021;-76
2021/12/16 08:13:54;;;;;;;5.53;3.60;;;3.90;88.60;;;;;;5055859;28;20025;-76
2021/12/16 08:16:22;;;;;;;6.75;3.35;;;3.90;88.80;;;;;;5074093;28;20020;-76
2021/12/16 08:18:53;;;;;;;7.50;3.80;;;3.90;88.70;;;;;;5056040;28;20124;-75
2021/12/16 08:21:20;;;;;;;8.23;5.30;;;3.90;88.70;;;;;;5055932;28;20552;-78
2021/12/16 08:23:46;;;;;;;8.50;5.00;;;4.00;88.70;;;;;;5055734;28;20028;-78
2021/12/16 08:26:15;;;;;;;6.45;3.88;;;4.00;88.80;;;;;;5055917;28;20028;-75
2021/12/16 08:28:42;;;;;;;6.00;3.60;;;4.00;88.50;;;;;;5055673;28;20097;-76
2021/12/16 08:31:08;;;;;;;6.70;4.40;;;4.10;88.60;;;;;;5055636;28;20020;-76
2021/12/16 08:33:35;;;;;;;5.85;3.78;;;4.10;88.50;;;;;;5055716;28;20049;-76
2021/12/16 08:36:01;;;;;;;3.88;2.78;;;4.20;88.30;;;;;;5055965;28;20024;-77
2021/12/16 08:38:28;;;;;;;5.07;3.20;;;4.20;88.30;;;;;;5057722;28;20427;-74
2021/12/16 08:40:58;;;;;;;6.88;3.33;;;4.30;87.20;;;;;;5055552;28;20109;-76
2021/12/16 08:43:24;;;;;;;5.25;2.97;;;4.30;87.20;;;;;;5055369;28;20021;-75
2021/12/16 08:45:49;;;;;;;4.40;3.13;;;4.40;87.00;;;;;;5055402;28;20024;-74
2021/12/16 08:48:15;;;;;;;7.53;2.92;;;4.50;86.50;;;;;;5055583;28;20408;-75
2021/12/16 09:14:45;;;;;;;4.00;3.05;;;8.00;74.60;;;;;;5072750;28;20028;-80
2021/12/16 09:17:15;;;;;;;6.88;3.70;;;8.00;73.30;;;;;;5055110;28;20035;-76
2021/12/16 09:19:46;;;;;;;8.13;4.05;;;7.60;71.20;;;;;;5055370;28;20035;-76
2021/12/16 09:22:15;;;;;;;6.28;3.85;;;7.20;72.50;;;;;;5072918;28;20032;-77
2021/12/16 09:24:41;;;;;;;7.35;4.00;;;6.80;73.70;;;;;;5073098;28;20062;-77
2021/12/16 09:27:07;;;;;;;5.88;3.83;;;6.60;75.00;;;;;;5055408;28;20389;-78
2021/12/16 09:29:33;;;;;;;4.43;3.03;;;6.30;76.00;;;;;;5074885;28;20023;-78
2021/12/16 09:32:02;;;;;;;5.85;3.50;;;6.20;76.80;;;;;;5077864;28;20042;-77
2021/12/16 09:34:28;;;;;;;5.38;3.60;;;6.10;77.80;;;;;;5079053;28;20047;-76
2021/12/16 09:36:54;;;;;;;6.47;3.85;;;6.00;78.30;;;;;;5095895;28;20024;-76
2021/12/16 09:39:23;;;;;;;6.35;3.88;;;6.00;78.80;;;;;;5057236;28;20048;-78
2021/12/16 09:41:50;;;;;;;4.68;3.97;;;6.00;79.30;;;;;;5063892;28;20021;-76
2021/12/16 09:44:17;;;;;;;5.63;3.95;;;6.00;79.40;;;;;;5075784;28;20068;-77
2021/12/16 09:46:47;;;;;;;4.80;2.75;;;5.90;79.30;;;;;;5057371;28;20384;-76
2021/12/16 09:49:13;;;;;;;6.78;4.15;;;5.80;79.40;;;;;;5057339;28;20203;-77
2021/12/16 09:51:41;;;;;;;13.30;6.82;;;5.80;79.70;;;;;;5056872;28;20040;-77
2021/12/16 09:54:11;;;;;;;9.38;6.30;;;5.80;80.50;;;;;;5056327;28;20024;-78
2021/12/16 09:56:41;;;;;;;10.63;6.32;;;5.80;81.00;;;;;;5055320;28;20029;-78
2021/12/16 09:59:10;;;;;;;15.45;8.10;;;5.80;81.50;;;;;;5055254;28;20075;-79
2021/12/16 10:01:38;;;;;;;13.50;7.60;;;5.80;82.00;;;;;;5054542;28;20078;-77
2021/12/16 10:04:07;;;;;;;12.43;7.47;;;5.70;82.40;;;;;;5054488;28;20027;-78
2021/12/16 10:06:36;;;;;;;8.73;5.55;;;5.70;82.10;;;;;;5054235;28;20473;-77
2021/12/16 10:09:05;;;;;;;9.85;5.35;;;5.60;81.30;;;;;;5072437;28;20037;-79
2021/12/16 10:11:33;;;;;;;13.18;8.02;;;5.50;81.70;;;;;;5072631;28;20024;-77
2021/12/16 10:19:16;;;;;;;6.75;3.72;;;5.50;82.60;;;;;;5072669;28;20119;-76
2021/12/16 10:21:42;;;;;;;9.98;4.70;;;5.40;82.10;;;;;;5054456;28;20090;-75
2021/12/16 10:24:41;;;;;;;7.70;4.10;;;5.40;82.20;;;;;;5057792;28;20544;-76
2021/12/16 10:27:11;;;;;;;8.57;4.47;;;5.40;82.50;;;;;;5042154;28;20047;-76
2021/12/16 10:29:42;;;;;;;6.15;3.97;;;5.40;82.50;;;;;;5057984;28;20594;-77
2021/12/16 10:32:42;;;;;;;11.43;6.30;;;5.40;82.60;;;;;;5057825;28;20426;-76
2021/12/16 10:35:28;;;;;;;16.52;8.65;;;5.50;82.70;;;;;;5057734;28;20060;-78
2021/12/16 10:38:00;;;;;;;11.00;7.20;;;5.50;83.50;;;;;;5057859;28;20024;-78
2021/12/16 10:40:34;;;;;;;21.70;11.63;;;5.50;83.60;;;;;;5057491;28;20025;-77
2021/12/16 10:43:05;;;;;;;17.50;10.43;;;5.60;84.00;;;;;;5075730;28;20480;-76
2021/12/16 10:45:49;;;;;;;17.00;10.02;;;5.50;85.20;;;;;;5057433;28;20180;-77
2021/12/16 10:48:19;;;;;;;21.50;12.43;;;5.50;85.10;;;;;;5057745;28;20024;-77
2021/12/16 10:50:54;;;;;;;26.38;13.18;;;5.40;86.20;;;;;;5057570;28;20033;-78
2021/12/16 10:53:58;;;;;;;24.55;13.32;;;5.40;85.80;;;;;;5057710;28;20362;-78
2021/12/16 10:56:47;;;;;;;24.23;13.00;;;5.40;85.90;;;;;;5075571;28;20493;-77
2021/12/16 10:59:23;;;;;;;22.98;10.50;;;5.40;86.10;;;;;;5057454;28;20021;-77
2021/12/16 11:01:57;;;;;;;;;;;5.40;86.00;;;;;;5075389;28;20534;-78
2021/12/16 11:04:28;;;;;;;22.63;12.65;;;5.40;85.90;;;;;;5057153;28;19912;-77
2021/12/16 11:07:11;;;;;;;26.55;14.95;;;5.40;85.80;;;;;;5056849;28;20056;-76
2021/12/16 11:09:36;;;;;;;32.88;16.55;;;5.40;85.90;;;;;;5075049;28;20032;-77
2021/12/16 11:12:10;;;;;;;31.98;14.93;;;5.40;86.20;;;;;;5056967;28;20067;-77
2021/12/16 11:14:38;;;;;;;25.33;13.57;;;5.40;86.10;;;;;;5074946;28;20035;-78
2021/12/16 11:17:08;;;;;;;25.20;13.40;;;5.40;86.00;;;;;;5056968;28;20021;-78
2021/12/16 11:19:44;;;;;;;23.92;13.30;;;5.50;86.10;;;;;;5075095;28;20103;-78
2021/12/16 11:22:12;;;;;;;22.70;12.75;;;5.40;86.20;;;;;;5056792;28;20047;-75
2021/12/16 11:24:38;;;;;;;16.88;9.80;;;5.40;86.40;;;;;;5056292;28;20098;-78
2021/12/16 11:27:24;;;;;;;19.70;11.52;;;5.40;86.40;;;;;;5056465;28;20075;-78
2021/12/16 11:29:51;;;;;;;23.20;13.23;;;5.30;86.50;;;;;;5056545;28;20176;-79
2021/12/16 11:32:40;;;;;;;21.98;11.90;;;5.20;86.90;;;;;;5056404;28;20041;-77
2021/12/16 11:35:28;;;;;;;21.50;12.07;;;5.20;87.40;;;;;;5073877;28;20024;-77
2021/12/16 11:37:55;;;;;;;23.30;12.10;;;5.30;87.50;;;;;;5056531;28;20508;-78
2021/12/16 11:40:20;;;;;;;20.52;11.18;;;5.30;87.40;;;;;;5053849;28;20029;-76
2021/12/16 11:43:04;;;;;;;22.80;12.63;;;5.30;87.10;;;;;;5051767;28;20055;-77
2021/12/16 11:45:36;;;;;;;22.85;13.18;;;5.40;86.90;;;;;;5034389;28;20017;-77
2021/12/16 11:48:04;;;;;;;19.60;11.88;;;5.50;86.80;;;;;;5034242;28;20108;-77
2021/12/16 11:50:37;;;;;;;22.95;12.50;;;5.50;86.80;;;;;;5021960;28;20489;-77
2021/12/16 11:53:04;;;;;;;24.67;13.65;;;5.60;86.60;;;;;;5050426;28;20100;-77
2021/12/16 11:55:35;;;;;;;22.70;12.35;;;5.60;86.40;;;;;;5034624;28;20112;-77
2021/12/16 11:58:03;;;;;;;23.70;12.10;;;5.60;86.20;;;;;;5034555;28;20132;-77
2021/12/16 12:00:36;;;;;;;20.08;12.15;;;5.60;87.00;;;;;;5052720;28;20453;-77
2021/12/16 12:03:13;;;;;;;24.38;14.07;;;5.60;86.20;;;;;;5034857;28;20477;-78
2021/12/16 12:05:48;;;;;;;26.88;14.25;;;5.70;86.30;;;;;;5035463;28;20025;-77
2021/12/16 12:08:26;;;;;;;23.58;13.30;;;5.70;86.00;;;;;;5052413;28;20485;-77
2021/12/16 12:11:16;;;;;;;23.88;13.10;;;5.60;86.00;;;;;;5033404;28;20537;-79
2021/12/16 12:13:54;;;;;;;18.65;10.77;;;5.70;86.00;;;;;;5034704;28;20022;-77
2021/12/16 12:16:26;;;;;;;25.20;15.15;;;5.70;85.90;;;;;;5034939;28;20025;-78
2021/12/16 12:18:57;;;;;;;22.90;13.75;;;5.70;85.80;;;;;;5034596;28;20017;-78
2021/12/16 12:21:55;;;;;;;26.15;14.63;;;5.60;86.20;;;;;;5034770;28;20462;-78
2021/12/16 12:24:33;;;;;;;21.48;12.27;;;5.50;87.70;;;;;;5024126;28;20036;-80
2021/12/16 12:27:00;;;;;;;20.52;12.80;;;5.60;87.60;;;;;;5034013;28;20155;-76
2021/12/16 12:29:33;;;;;;;21.25;12.25;;;5.70;87.80;;;;;;5031775;28;20033;-77
2021/12/16 12:32:08;;;;;;;23.48;13.50;;;5.80;87.50;;;;;;5051900;28;20025;-77
2021/12/16 12:34:37;;;;;;;19.60;11.68;;;5.90;87.70;;;;;;5066224;28;20027;-76
2021/12/16 12:37:07;;;;;;;17.73;10.70;;;6.00;87.20;;;;;;5035115;28;20032;-77
2021/12/16 12:39:45;;;;;;;21.17;11.80;;;6.10;86.70;;;;;;5035683;28;20087;-75
2021/12/16 12:42:14;;;;;;;21.40;11.82;;;6.20;86.10;;;;;;5036215;28;20510;-75
2021/12/16 12:44:40;;;;;;;20.13;11.98;;;6.30;85.60;;;;;;5053057;28;20025;-76
2021/12/16 12:47:12;;;;;;;15.75;10.30;;;6.30;85.30;;;;;;5053521;28;20032;-78
2021/12/16 12:49:38;;;;;;;20.40;12.07;;;6.30;85.10;;;;;;5057268;28;20083;-77
2021/12/16 12:52:20;;;;;;;18.55;10.48;;;6.30;84.70;;;;;;5058569;28;20052;-78
2021/12/16 12:55:10;;;;;;;18.48;9.57;;;6.30;84.70;;;;;;5035312;28;20033;-74
2021/12/16 12:57:38;;;;;;;16.73;10.50;;;6.80;89.60;;;;;;5026671;28;20032;-75
2021/12/16 13:00:24;;;;;;;16.77;10.55;;;7.50;85.00;;;;;;5035262;28;20029;-75
2021/12/16 13:03:05;;;;;;;19.00;10.43;;;7.80;81.00;;;;;;5035262;28;20021;-74
2021/12/16 13:05:31;;;;;;;19.88;10.70;;;8.30;80.50;;;;;;5053126;28;20029;-74
2021/12/16 13:08:00;;;;;;;15.18;9.50;;;8.70;78.20;;;;;;5053001;28;20119;-76
2021/12/16 13:10:32;;;;;;;19.00;10.52;;;8.90;76.80;;;;;;5053062;28;20474;-74
2021/12/16 13:13:32;;;;;;;16.95;10.32;;;9.40;74.50;;;;;;5053515;28;20486;-74
2021/12/16 13:27:04;;;;;;;19.48;10.43;;;9.40;73.10;;;;;;5053030;28;20112;-73
2021/12/16 13:29:36;;;;;;;14.93;9.55;;;9.50;72.40;;;;;;5034767;28;20040;-71
2021/12/16 13:32:15;;;;;;;17.67;11.27;;;9.50;72.40;;;;;;5052494;28;20441;-73
2021/12/16 13:34:53;;;;;;;16.08;10.65;;;9.30;72.50;;;;;;5052658;28;20028;-73
2021/12/16 13:37:24;;;;;;;18.33;10.15;;;9.20;73.30;;;;;;5052704;28;20018;-72
2021/12/16 13:40:03;;;;;;;14.95;9.98;;;9.00;74.90;;;;;;5052666;28;20079;-72
2021/12/16 13:42:48;;;;;;;16.05;10.80;;;8.80;75.70;;;;;;5052625;28;20033;-72
2021/12/16 13:45:31;;;;;;;17.25;10.48;;;8.70;75.50;;;;;;5052525;28;20024;-72
2021/12/16 14:02:36;;;;;;;19.35;12.60;;;8.40;76.80;;;;;;5056465;28;20060;-72
2021/12/16 14:08:13;;;;;;;20.50;12.45;;;8.20;76.60;;;;;;5018359;28;20033;-74
2021/12/16 14:10:45;;;;;;;25.75;16.05;;;8.00;77.60;;;;;;5056397;28;20142;-75
2021/12/16 14:16:26;;;;;;;31.23;18.25;;;7.30;78.10;;;;;;5056424;28;20363;-77
2021/12/16 14:24:59;;;;;;;23.85;14.02;;;6.50;82.40;;;;;;5056008;28;20095;-73
2021/12/16 14:38:41;;;;;;;23.63;13.90;;;6.00;85.10;;;;;;5055722;28;20120;-77
2021/12/16 14:41:15;;;;;;;22.67;13.38;;;6.00;84.90;;;;;;5055492;28;20144;-74
2021/12/16 14:43:55;;;;;;;25.58;14.40;;;6.00;85.00;;;;;;5055665;28;20029;-77
2021/12/16 14:46:29;;;;;;;23.38;13.25;;;6.00;85.10;;;;;;5055624;28;20413;-74
2021/12/16 14:48:55;;;;;;;21.70;12.43;;;6.00;85.10;;;;;;5037762;28;20040;-74
2021/12/16 14:51:21;;;;;;;24.88;14.32;;;6.00;85.20;;;;;;5037609;28;20385;-73
2021/12/16 14:53:52;;;;;;;25.42;14.63;;;6.00;85.50;;;;;;5055414;28;20056;-73
2021/12/16 14:56:20;;;;;;;27.85;15.18;;;6.00;87.30;;;;;;5037275;28;20156;-73
2021/12/16 14:58:54;;;;;;;25.90;15.43;;;6.00;87.10;;;;;;5054952;28;20021;-74
2021/12/16 15:01:30;;;;;;;29.25;18.95;;;6.10;86.90;;;;;;5055192;28;20017;-75
2021/12/16 15:03:56;;;;;;;28.23;17.00;;;6.20;86.90;;;;;;5037249;28;20120;-72
2021/12/16 15:06:31;;;;;;;27.58;17.38;;;6.20;86.30;;;;;;5054950;28;20436;-75
2021/12/16 15:14:31;;;;;;;28.52;13.20;;;6.90;91.80;;;;;;5055043;28;20033;-73
2021/12/16 15:17:21;;;;;;;24.55;14.57;;;7.70;89.80;;;;;;5055158;28;20155;-73
2021/12/16 15:35:45;;;;;;;18.60;11.88;;;9.30;77.40;;;;;;5036961;28;20056;-74
2021/12/16 15:39:47;;;;;;;19.17;11.57;;;9.10;76.10;;;;;;5034959;28;20022;-75
2021/12/16 15:45:17;;;;;;;18.02;10.65;;;9.20;75.30;;;;;;5034304;28;20025;-74
2021/12/16 15:47:51;;;;;;;16.63;11.23;;;9.20;75.00;;;;;;5034088;28;20421;-73
2021/12/16 15:50:22;;;;;;;19.85;11.52;;;8.90;74.90;;;;;;5034308;28;20112;-73
2021/12/16 15:52:50;;;;;;;16.60;10.93;;;9.00;75.70;;;;;;5034510;28;20021;-74
2021/12/16 15:55:24;;;;;;;16.95;11.55;;;9.00;74.60;;;;;;5034557;28;20029;-72
2021/12/16 15:57:50;;;;;;;21.17;14.57;;;8.60;74.90;;;;;;5034510;28;20413;-75
2021/12/16 16:00:20;;;;;;;25.80;15.43;;;8.40;75.10;;;;;;5016611;28;20032;-74
2021/12/16 16:02:46;;;;;;;25.95;14.55;;;7.80;76.00;;;;;;5016540;28;20026;-73
2021/12/16 16:05:12;;;;;;;23.85;13.93;;;7.40;77.60;;;;;;5034011;28;20100;-74
2021/12/16 16:07:40;;;;;;;21.58;13.77;;;7.10;79.20;;;;;;5016392;28;20032;-73
2021/12/16 16:10:08;;;;;;;19.15;12.52;;;6.80;80.50;;;;;;5016193;28;20092;-74
2021/12/16 16:12:34;;;;;;;19.52;12.70;;;6.50;81.60;;;;;;5034181;28;20044;-73
2021/12/16 16:15:16;;;;;;;23.75;13.80;;;6.40;82.10;;;;;;5016612;28;20474;-75
2021/12/16 16:20:34;;;;;;;23.20;14.75;;;6.10;83.60;;;;;;5034075;28;20112;-76
2021/12/16 16:23:08;;;;;;;21.42;14.40;;;6.00;83.80;;;;;;5016022;28;20017;-74
2021/12/16 16:25:35;;;;;;;23.40;14.55;;;6.00;84.10;;;;;;5015902;28;20496;-75
2021/12/16 16:28:02;;;;;;;25.27;15.57;;;6.00;84.40;;;;;;5015988;28;20033;-74
2021/12/16 16:30:29;;;;;;;22.50;14.50;;;6.00;84.70;;;;;;5016243;28;20037;-74
2021/12/16 16:33:09;;;;;;;24.00;15.43;;;5.90;84.90;;;;;;5025888;28;20179;-74
2021/12/16 16:35:41;;;;;;;20.55;13.95;;;5.90;85.00;;;;;;5036004;28;20025;-73
2021/12/16 16:38:17;;;;;;;22.40;14.00;;;5.80;84.90;;;;;;5036028;28;20029;-75
2021/12/16 16:40:46;;;;;;;18.40;12.38;;;5.80;85.00;;;;;;5036067;28;20025;-74
2021/12/16 16:43:19;;;;;;;21.58;13.32;;;5.80;85.10;;;;;;5036711;28;20036;-76
2021/12/16 16:45:48;;;;;;;24.52;15.13;;;5.80;85.00;;;;;;5039755;28;20020;-75
2021/12/16 16:51:07;;;;;;;22.25;14.40;;;5.70;86.30;;;;;;5053806;28;20098;-77
2021/12/16 16:53:45;;;;;;;23.10;14.35;;;5.70;85.50;;;;;;5035523;28;20021;-74
2021/12/16 16:56:11;;;;;;;23.88;13.65;;;5.70;85.70;;;;;;5035581;28;20033;-75
2021/12/16 16:58:37;;;;;;;27.27;16.95;;;5.70;85.90;;;;;;5035313;28;20057;-76
2021/12/16 17:01:03;;;;;;;24.00;15.48;;;5.70;86.00;;;;;;5053496;28;20061;-76
2021/12/16 17:03:30;;;;;;;24.83;15.85;;;5.70;86.00;;;;;;5053156;28;20025;-76
2021/12/16 17:05:59;;;;;;;26.73;16.77;;;5.70;86.10;;;;;;5053259;28;20428;-75
2021/12/16 17:08:34;;;;;;;25.52;16.27;;;5.70;87.00;;;;;;5053545;28;20431;-75